Time;durP1;ratioP1;P1;durP2;ratioP2;P2;SDS_P1;SDS_P2;PMS_P1;PMS_P2;Temp;Humidity;BMP_temperature;BMP_pressure;BME280_temperature;BME280_humidity;BME280_pressure;Samples;Min_cycle;Max_cycle;Signal;HPM_P1;HPM_P2
2023/01/16 00:00:03;;;;;;;;;;;;;;;20.34;52.71;99520.47;4897282;29;4131;-58
2023/01/16 00:02:31;;;;;;;;;;;;;;;20.34;52.69;99521.22;4897317;29;4120;-58
2023/01/16 00:04:57;;;;;;;;;;;;;;;20.32;52.75;99521.16;4892615;29;5381;-58
2023/01/16 00:07:24;;;;;;;;;;;;;;;20.32;52.68;99523.28;4898474;29;4078;-59
2023/01/16 00:09:50;;;;;;;;;;;;;;;20.32;52.57;99521.16;4895316;29;4367;-59
2023/01/16 00:12:16;;;;;;;;;;;;;;;20.30;52.79;99526.88;4897636;29;4069;-59
2023/01/16 00:14:43;;;;;;;;;;;;;;;20.30;52.62;99524.00;4895848;29;4161;-58
2023/01/16 00:17:09;;;;;;;;;;;;;;;20.29;52.67;99531.13;4895470;29;4005;-59
2023/01/16 00:19:35;;;;;;;;;;;;;;;20.28;52.62;99513.16;4896673;29;4348;-58
2023/01/16 00:22:02;;;;;;;;;;;;;;;20.27;52.78;99510.97;4895731;29;4119;-58
2023/01/16 00:24:28;;;;;;;;;;;;;;;20.27;52.66;99510.97;4891941;29;4231;-58
2023/01/16 00:26:55;;;;;;;;;;;;;;;20.26;52.67;99503.75;4895484;29;4150;-58
2023/01/16 00:29:21;;;;;;;;;;;;;;;20.25;52.58;99508.06;4878331;29;5341;-59
2023/01/16 00:31:47;;;;;;;;;;;;;;;20.25;52.64;99503.03;4894384;29;4466;-58
2023/01/16 00:34:14;;;;;;;;;;;;;;;20.23;52.69;99493.63;4893473;29;4241;-58
2023/01/16 00:36:40;;;;;;;;;;;;;;;20.24;52.60;99497.97;4892576;29;4361;-59
2023/01/16 00:39:06;;;;;;;;;;;;;;;20.24;52.66;99500.84;4895089;29;4372;-58
2023/01/16 00:41:33;;;;;;;;;;;;;;;20.23;52.54;99493.63;4894338;29;4141;-58
2023/01/16 00:43:59;;;;;;;;;;;;;;;20.22;52.54;99497.91;4899534;29;4276;-58
2023/01/16 00:46:26;;;;;;;;;;;;;;;20.21;52.59;99490.72;4894769;29;4191;-58
2023/01/16 00:48:52;;;;;;;;;;;;;;;20.21;52.53;99502.19;4897533;29;4197;-58
2023/01/16 00:51:18;;;;;;;;;;;;;;;20.21;52.74;99502.19;4897264;29;4133;-58
2023/01/16 00:53:45;;;;;;;;;;;;;;;20.21;52.34;99502.19;4895457;29;5297;-58
2023/01/16 00:56:11;;;;;;;;;;;;;;;20.20;52.40;99501.47;4898167;29;4919;-58
2023/01/16 00:58:37;;;;;;;;;;;;;;;20.19;52.57;99502.88;4896934;29;4504;-58
2023/01/16 01:01:04;;;;;;;;;;;;;;;20.18;52.53;99497.78;4894482;29;5318;-58
2023/01/16 01:03:30;;;;;;;;;;;;;;;20.19;52.58;99505.03;4895344;29;5373;-58
2023/01/16 01:05:57;;;;;;;;;;;;;;;20.17;52.47;99508.56;4893715;29;4412;-58
2023/01/16 01:08:23;;;;;;;;;;;;;;;20.17;52.44;99504.97;4893563;29;5338;-59
2023/01/16 01:10:49;;;;;;;;;;;;;;;20.17;52.59;99502.09;4896858;29;4118;-59
2023/01/16 01:13:16;;;;;;;;;;;;;;;20.16;52.72;99500.63;4896811;29;4261;-60
2023/01/16 01:15:42;;;;;;;;;;;;;;;20.16;52.57;99503.50;4895481;29;4152;-60
2023/01/16 01:18:08;;;;;;;;;;;;;;;20.16;52.74;99497.75;4891520;29;4160;-59
2023/01/16 01:20:35;;;;;;;;;;;;;;;20.15;52.57;99493.41;4894181;29;5223;-60
2023/01/16 01:23:01;;;;;;;;;;;;;;;20.15;52.50;99499.16;4897372;29;5283;-59
2023/01/16 01:25:27;;;;;;;;;;;;;;;20.13;52.55;99502.72;4891615;29;4181;-60
2023/01/16 01:27:54;;;;;;;;;;;;;;;20.13;52.71;99501.97;4894145;29;4123;-59
2023/01/16 01:30:20;;;;;;;;;;;;;;;20.12;52.53;99497.66;4895293;29;4098;-59
2023/01/16 01:32:46;;;;;;;;;;;;;;;20.10;52.81;99498.34;4892244;29;4052;-56
2023/01/16 01:35:13;;;;;;;;;;;;;;;20.09;52.55;99491.84;4885947;29;4147;-59
2023/01/16 01:37:39;;;;;;;;;;;;;;;20.09;52.28;99491.84;4881783;29;4167;-59
2023/01/16 01:40:06;;;;;;;;;;;;;;;20.09;52.35;99486.09;4882092;29;5416;-59
2023/01/16 01:42:42;;;;;;;;;;;;;;;20.09;52.60;99479.63;4891134;29;4232;-59
2023/01/16 01:45:15;;;;;;;;;;;;;;;20.08;52.45;99484.63;4897075;29;4011;-58
2023/01/16 01:47:44;;;;;;;;;;;;;;;20.07;52.30;99488.19;4895708;29;5190;-58
2023/01/16 01:50:14;;;;;;;;;;;;;;;20.06;52.43;99487.44;4896019;29;5349;-58
2023/01/16 01:52:41;;;;;;;;;;;;;;;20.07;52.23;99482.47;4893183;29;5396;-59
2023/01/16 01:55:07;;;;;;;;;;;;;;;20.06;52.30;99480.97;4894040;29;5224;-59
2023/01/16 01:57:37;;;;;;;;;;;;;;;20.06;52.36;99480.97;4891750;29;4149;-59
2023/01/16 02:00:04;;;;;;;;;;;;;;;20.07;52.28;99482.47;4881293;29;5329;-59
2023/01/16 02:02:37;;;;;;;;;;;;;;;20.08;52.31;99481.03;4894280;29;4330;-59
2023/01/16 02:05:04;;;;;;;;;;;;;;;20.09;52.25;99479.63;4887070;29;4105;-59
2023/01/16 02:07:30;;;;;;;;;;;;;;;20.09;52.48;99480.38;4895190;29;5326;-58
2023/01/16 02:10:00;;;;;;;;;;;;;;;20.11;52.41;99484.69;4894015;29;4224;-58
2023/01/16 02:12:26;;;;;;;;;;;;;;;20.13;52.27;99473.25;4891551;29;4219;-60
2023/01/16 02:14:53;;;;;;;;;;;;;;;20.15;52.37;99481.91;4897807;29;4204;-59
2023/01/16 02:20:04;;;;;;;;;;;;;;;20.16;52.58;99474.75;4886955;29;4250;-58
2023/01/16 02:22:43;;;;;;;;;;;;;;;20.14;52.73;99468.97;4895834;29;4299;-59
2023/01/16 02:25:28;;;;;;;;;;;;;;;20.15;52.67;99464.69;4895673;29;4294;-59
2023/01/16 02:28:13;;;;;;;;;;;;;;;20.12;52.53;99466.06;4893916;29;4162;-58
2023/01/16 02:30:55;;;;;;;;;;;;;;;20.13;52.74;99462.47;4889863;29;5283;-58
2023/01/16 02:33:25;;;;;;;;;;;;;;;20.13;52.69;99461.75;4890799;29;5483;-58
2023/01/16 02:36:10;;;;;;;;;;;;;;;20.12;52.96;99448.81;4875184;29;5405;-58
2023/01/16 02:38:55;;;;;;;;;;;;;;;20.09;52.80;99451.63;4894777;29;4081;-58
2023/01/16 02:41:41;;;;;;;;;;;;;;;20.12;52.75;99451.69;4895409;29;4103;-59
2023/01/16 02:48:16;;;;;;;;;;;;;;;20.08;52.78;99444.41;4887922;29;4438;-58
2023/01/16 02:50:46;;;;;;;;;;;;;;;20.08;52.71;99438.66;4893043;29;4482;-58
2023/01/16 02:53:17;;;;;;;;;;;;;;;20.07;52.84;99431.47;4901821;29;4109;-58
2023/01/16 02:55:43;;;;;;;;;;;;;;;20.06;52.96;99426.38;4892291;29;4216;-58
2023/01/16 02:58:11;;;;;;;;;;;;;;;20.06;52.83;99429.97;4900395;29;4138;-59
2023/01/16 03:00:37;;;;;;;;;;;;;;;20.06;52.85;99429.25;4897656;29;4230;-58
2023/01/16 03:03:03;;;;;;;;;;;;;;;20.05;52.96;99430.69;4896133;29;4208;-58
2023/01/16 03:05:31;;;;;;;;;;;;;;;20.05;52.88;99419.91;4897070;29;4955;-59
2023/01/16 03:08:17;;;;;;;;;;;;;;;20.05;52.77;99428.53;4896980;29;5170;-59
2023/01/16 03:10:58;;;;;;;;;;;;;;;20.04;52.88;99421.34;4895992;29;5343;-58
2023/01/16 03:13:24;;;;;;;;;;;;;;;20.05;52.90;99433.56;4900235;29;4018;-58
2023/01/16 03:16:00;;;;;;;;;;;;;;;20.02;52.82;99418.41;4899141;29;3999;-58
2023/01/16 03:18:34;;;;;;;;;;;;;;;20.02;52.70;99412.66;4901784;29;4049;-60
2023/01/16 03:21:03;;;;;;;;;;;;;;;20.02;52.74;99421.28;4883003;29;4061;-58
2023/01/16 03:23:32;;;;;;;;;;;;;;;20.01;52.70;99404.72;4900637;29;4879;-58
2023/01/16 03:26:02;;;;;;;;;;;;;;;20.00;52.84;99404.00;4897767;29;5135;-59
2023/01/16 03:28:31;;;;;;;;;;;;;;;19.99;52.77;99396.78;4898026;29;4267;-59
2023/01/16 03:31:05;;;;;;;;;;;;;;;19.98;52.77;99395.31;4898050;29;4042;-59
2023/01/16 03:33:42;;;;;;;;;;;;;;;19.98;52.82;99386.69;4897986;29;4184;-59
2023/01/16 03:36:10;;;;;;;;;;;;;;;19.98;52.88;99388.84;4896848;29;4115;-58
2023/01/16 03:38:37;;;;;;;;;;;;;;;19.97;52.75;99393.84;4900532;29;4164;-58
2023/01/16 03:41:03;;;;;;;;;;;;;;;19.98;52.72;99383.81;4897401;29;4232;-59
2023/01/16 03:43:34;;;;;;;;;;;;;;;19.97;52.59;99393.84;4898092;29;4105;-59
2023/01/16 03:46:05;;;;;;;;;;;;;;;19.96;52.62;99395.25;4896777;29;4202;-59
2023/01/16 03:48:42;;;;;;;;;;;;;;;19.98;52.62;99386.69;4894313;29;4597;-59
2023/01/16 03:51:09;;;;;;;;;;;;;;;20.01;52.45;99385.31;4892876;29;4228;-59
2023/01/16 03:53:36;;;;;;;;;;;;;;;20.04;52.71;99380.34;4900025;29;4197;-59
2023/01/16 03:56:21;;;;;;;;;;;;;;;20.05;52.51;99376.81;4900052;29;4236;-59
2023/01/16 03:58:49;;;;;;;;;;;;;;;20.06;52.74;99372.50;4898131;29;3987;-59
2023/01/16 04:01:19;;;;;;;;;;;;;;;20.09;52.91;99367.56;4894426;29;4224;-59
2023/01/16 04:03:53;;;;;;;;;;;;;;;20.08;52.80;99366.81;4896120;29;5214;-59
2023/01/16 04:06:20;;;;;;;;;;;;;;;20.09;52.72;99361.81;4896684;29;4000;-59
2023/01/16 04:08:46;;;;;;;;;;;;;;;20.10;52.70;99360.41;4897543;29;3975;-59
2023/01/16 04:11:13;;;;;;;;;;;;;;;20.09;52.74;99356.81;4898848;29;4240;-59
2023/01/16 04:13:39;;;;;;;;;;;;;;;20.10;52.74;99348.91;4897861;29;4150;-60
2023/01/16 04:16:09;;;;;;;;;;;;;;;20.11;52.82;99338.13;4900408;29;4151;-60
2023/01/16 04:18:35;;;;;;;;;;;;;;;20.11;52.77;99341.00;4898852;29;4167;-59
2023/01/16 04:21:05;;;;;;;;;;;;;;;20.12;52.80;99337.47;4898559;29;4191;-59
2023/01/16 04:23:31;;;;;;;;;;;;;;;20.13;52.89;99335.31;4897071;29;4203;-59
2023/01/16 04:25:57;;;;;;;;;;;;;;;20.14;52.86;99331.03;4898847;29;4057;-58
2023/01/16 04:28:24;;;;;;;;;;;;;;;20.13;52.97;99332.44;4899091;29;4192;-58
2023/01/16 04:30:50;;;;;;;;;;;;;;;20.14;52.74;99326.00;4896946;29;4158;-59
2023/01/16 04:33:16;;;;;;;;;;;;;;;20.15;52.94;99327.47;4898343;29;4180;-58
2023/01/16 04:35:43;;;;;;;;;;;;;;;20.15;52.91;99318.84;4888497;29;4152;-59
2023/01/16 04:38:09;;;;;;;;;;;;;;;20.15;52.91;99309.50;4893531;29;4043;-59
2023/01/16 04:40:35;;;;;;;;;;;;;;;20.15;52.80;99309.50;4897322;29;4033;-59
2023/01/16 04:43:02;;;;;;;;;;;;;;;20.16;52.96;99308.06;4892962;29;5220;-59
2023/01/16 04:45:28;;;;;;;;;;;;;;;20.15;52.76;99306.63;4890855;29;4531;-59
2023/01/16 04:47:54;;;;;;;;;;;;;;;20.17;52.65;99298.06;4897640;29;4249;-59
2023/01/16 04:50:21;;;;;;;;;;;;;;;20.17;52.85;99290.16;4899467;29;4151;-59
2023/01/16 04:52:47;;;;;;;;;;;;;;;20.17;52.82;99290.16;4889663;29;4261;-59
2023/01/16 04:55:14;;;;;;;;;;;;;;;20.19;52.85;99298.81;4894185;29;4240;-58
2023/01/16 04:57:40;;;;;;;;;;;;;;;20.19;52.91;99292.34;4895460;29;4525;-59
2023/01/16 05:00:07;;;;;;;;;;;;;;;20.19;52.85;99298.09;4897917;29;4408;-59
2023/01/16 05:02:33;;;;;;;;;;;;;;;20.20;52.72;99296.66;4896996;29;4130;-59
2023/01/16 05:05:00;;;;;;;;;;;;;;;20.19;52.90;99290.19;4896729;29;4137;-59
2023/01/16 05:07:27;;;;;;;;;;;;;;;20.19;53.02;99281.59;4897589;29;5243;-59
2023/01/16 05:09:53;;;;;;;;;;;;;;;20.18;52.88;99285.13;4894315;29;4212;-59
2023/01/16 05:12:20;;;;;;;;;;;;;;;20.18;52.80;99279.38;4900230;29;4593;-59
2023/01/16 05:14:46;;;;;;;;;;;;;;;20.18;52.82;99267.88;4896883;29;5283;-58
2023/01/16 05:17:12;;;;;;;;;;;;;;;20.20;52.79;99270.81;4895993;29;4083;-59
2023/01/16 05:19:39;;;;;;;;;;;;;;;20.18;52.91;99267.88;4897194;29;4342;-59
2023/01/16 05:22:05;;;;;;;;;;;;;;;20.20;52.83;99271.56;4895730;29;4211;-58
2023/01/16 05:24:31;;;;;;;;;;;;;;;20.21;52.74;99269.41;4895753;29;4321;-59
2023/01/16 05:26:58;;;;;;;;;;;;;;;20.20;52.57;99276.56;4894596;29;4216;-58
2023/01/16 05:29:24;;;;;;;;;;;;;;;20.21;52.75;99275.16;4892845;29;4028;-59
2023/01/16 05:31:50;;;;;;;;;;;;;;;20.20;52.89;99267.94;4887781;29;3990;-58
2023/01/16 05:34:17;;;;;;;;;;;;;;;20.21;52.81;99278.03;4897672;29;6426;-59
2023/01/16 05:36:43;;;;;;;;;;;;;;;20.20;52.76;99265.06;4893499;29;4188;-59
2023/01/16 05:39:09;;;;;;;;;;;;;;;20.19;52.73;99252.84;4894883;29;4271;-59
2023/01/16 05:41:35;;;;;;;;;;;;;;;20.20;52.75;99253.56;4891543;29;4172;-58
2023/01/16 05:44:02;;;;;;;;;;;;;;;20.21;52.79;99249.28;4897781;29;5378;-59
2023/01/16 05:46:29;;;;;;;;;;;;;;;20.21;52.71;99249.28;4893778;29;5278;-59
2023/01/16 05:48:55;;;;;;;;;;;;;;;20.23;52.85;99243.59;4895874;29;5407;-58
2023/01/16 05:51:21;;;;;;;;;;;;;;;20.23;52.91;99237.84;4898517;29;4161;-58
2023/01/16 05:53:51;;;;;;;;;;;;;;;20.24;52.79;99247.91;4896318;29;4136;-58
2023/01/16 05:56:19;;;;;;;;;;;;;;;20.23;52.86;99238.56;4889713;29;5277;-59
2023/01/16 05:58:45;;;;;;;;;;;;;;;20.23;52.94;99235.69;4895117;29;4186;-59
2023/01/16 06:01:12;;;;;;;;;;;;;;;20.22;53.02;99239.97;4892915;29;4255;-59
2023/01/16 06:03:38;;;;;;;;;;;;;;;20.22;52.91;99233.50;4892310;29;5571;-58
2023/01/16 06:06:04;;;;;;;;;;;;;;;20.22;52.91;99222.72;4894776;29;4294;-58
2023/01/16 06:08:31;;;;;;;;;;;;;;;20.23;52.83;99229.94;4893267;29;4475;-59
2023/01/16 06:10:58;;;;;;;;;;;;;;;20.23;52.73;99232.09;4897120;29;4140;-59
2023/01/16 06:13:24;;;;;;;;;;;;;;;20.23;52.98;99224.19;4893654;29;4343;-58
2023/01/16 06:15:51;;;;;;;;;;;;;;;20.24;52.86;99228.50;4891055;29;4339;-59
2023/01/16 06:18:17;;;;;;;;;;;;;;;20.24;52.74;99222.03;4900193;29;4292;-59
2023/01/16 06:20:44;;;;;;;;;;;;;;;20.25;52.97;99220.66;4897871;29;4942;-59
2023/01/16 06:23:10;;;;;;;;;;;;;;;20.26;52.82;99216.34;4903754;29;5600;-58
2023/01/16 06:25:36;;;;;;;;;;;;;;;20.25;52.89;99217.78;4886208;29;4130;-58
2023/01/16 06:28:03;;;;;;;;;;;;;;;20.26;52.81;99214.19;4891927;29;4292;-59
2023/01/16 06:30:29;;;;;;;;;;;;;;;20.25;52.84;99214.91;4895897;29;4138;-59
2023/01/16 06:32:55;;;;;;;;;;;;;;;20.24;52.89;99216.28;4889817;29;4243;-59
2023/01/16 06:35:22;;;;;;;;;;;;;;;20.30;52.87;99213.56;4885368;29;4267;-75
2023/01/16 06:37:48;;;;;;;;;;;;;;;19.99;50.15;99212.91;4895705;29;4252;-72
2023/01/16 06:40:15;;;;;;;;;;;;;;;19.61;49.48;99216.34;4896058;29;4046;-72
2023/01/16 06:42:41;;;;;;;;;;;;;;;19.74;49.53;99214.50;4894646;29;4045;-72
2023/01/16 06:45:07;;;;;;;;;;;;;;;19.96;51.61;99207.81;4897899;29;4144;-72
2023/01/16 06:47:34;;;;;;;;;;;;;;;20.23;51.06;99200.47;4893936;29;4417;-69
2023/01/16 06:50:00;;;;;;;;;;;;;;;20.36;50.93;99196.41;4889323;29;4850;-82
2023/01/16 06:52:26;;;;;;;;;;;;;;;20.45;51.55;99192.28;4897819;29;4374;-77
2023/01/16 06:54:53;;;;;;;;;;;;;;;20.42;51.17;99193.66;4895685;29;4984;-79
2023/01/16 06:57:23;;;;;;;;;;;;;;;20.49;52.55;99203.88;4886506;29;4073;-75
2023/01/16 06:59:50;;;;;;;;;;;;;;;20.61;52.88;99196.91;4899051;29;4513;-74
2023/01/16 07:02:16;;;;;;;;;;;;;;;20.66;52.80;99198.44;4901798;29;4243;-74
2023/01/16 07:04:44;;;;;;;;;;;;;;;20.72;52.45;99189.94;4900259;29;4163;-75
2023/01/16 07:07:10;;;;;;;;;;;;;;;20.78;52.73;99190.06;4903522;29;4182;-75
2023/01/16 07:09:37;;;;;;;;;;;;;;;20.81;52.56;99191.53;4900206;29;5258;-74
2023/01/16 07:12:03;;;;;;;;;;;;;;;20.72;52.35;99195.69;4895968;29;5226;-78
2023/01/16 07:22:53;;;;;;;;;;;;;;;20.33;51.01;99182.72;4897540;29;4137;-74
2023/01/16 07:25:21;;;;;;;;;;;;;;;20.36;51.54;99167.66;4896494;29;4684;-74
2023/01/16 07:27:48;;;;;;;;;;;;;;;20.42;52.23;99164.91;4894249;29;5113;-74
2023/01/16 07:30:15;;;;;;;;;;;;;;;20.46;52.20;99167.16;4897629;29;5646;-76
2023/01/16 07:32:41;;;;;;;;;;;;;;;20.47;52.22;99171.47;4895482;29;4051;-74
2023/01/16 07:35:08;;;;;;;;;;;;;;;20.49;52.41;99175.13;4900114;29;4190;-74
2023/01/16 07:37:34;;;;;;;;;;;;;;;20.46;52.29;99172.91;4894812;29;4176;-72
2023/01/16 07:40:01;;;;;;;;;;;;;;;13.63;48.45;99181.19;4896005;29;4185;-75
2023/01/16 07:42:27;;;;;;;;;;;;;;;17.78;49.59;99167.03;4892019;29;4733;-79
2023/01/16 07:44:53;;;;;;;;;;;;;;;19.40;47.75;99166.34;4893499;29;5407;-77
2023/01/16 07:47:20;;;;;;;;;;;;;;;20.02;46.62;99161.97;4902322;29;4357;-76
2023/01/16 07:49:46;;;;;;;;;;;;;;;20.32;45.81;99150.38;4900626;29;4178;-77
2023/01/16 07:52:12;;;;;;;;;;;;;;;20.49;45.06;99152.13;4899690;29;4242;-77
2023/01/16 07:54:41;;;;;;;;;;;;;;;20.60;44.65;99155.22;4900817;29;5311;-74
2023/01/16 07:57:07;;;;;;;;;;;;;;;20.65;44.04;99145.25;4899105;29;5246;-77
2023/01/16 07:59:33;;;;;;;;;;;;;;;20.73;43.12;99145.41;4899791;29;5454;-77
2023/01/16 08:02:01;;;;;;;;;;;;;;;20.78;43.01;99146.19;4893014;29;4096;-76
2023/01/16 08:04:28;;;;;;;;;;;;;;;20.82;43.21;99141.25;4898272;29;4208;-76
2023/01/16 08:06:57;;;;;;;;;;;;;;;20.83;43.04;99131.16;4905113;29;4235;-75
2023/01/16 08:09:23;;;;;;;;;;;;;;;20.86;42.38;99123.31;4906171;29;4111;-78
2023/01/16 08:11:50;;;;;;;;;;;;;;;20.78;42.26;99131.81;4900464;29;5315;-76
2023/01/16 08:14:16;;;;;;;;;;;;;;;20.78;42.59;99123.91;4889478;29;4066;-77
2023/01/16 08:16:42;;;;;;;;;;;;;;;20.79;41.63;99110.97;4897282;29;4205;-72
2023/01/16 08:19:09;;;;;;;;;;;;;;;20.67;42.92;99110.78;4890184;29;4181;-70
2023/01/16 08:21:35;;;;;;;;;;;;;;;20.67;43.21;99119.41;4887423;29;4150;-70
2023/01/16 08:24:01;;;;;;;;;;;;;;;20.78;43.70;99106.66;4892636;29;4250;-71
2023/01/16 08:26:29;;;;;;;;;;;;;;;20.88;44.34;99109.69;4899043;29;5192;-71
2023/01/16 08:28:55;;;;;;;;;;;;;;;20.96;44.42;99096.84;4898483;29;4181;-72
2023/01/16 08:31:21;;;;;;;;;;;;;;;21.07;44.76;99086.94;4906559;29;4003;-73
2023/01/16 08:33:48;;;;;;;;;;;;;;;21.04;44.42;99086.19;4903553;29;3996;-73
2023/01/16 08:36:16;;;;;;;;;;;;;;;21.08;44.81;99085.53;4897038;29;4239;-78
2023/01/16 08:38:43;;;;;;;;;;;;;;;21.05;45.03;99089.78;4877598;29;5148;-73
2023/01/16 08:51:21;;;;;;;;;;;;;;;20.63;44.23;99090.56;4877684;29;4125;-75
2023/01/16 08:52:10;;;;;;;;;;;;;;;21.21;43.10;99052.63;4884288;29;4087;-76
2023/01/16 08:54:37;;;;;;;;;;;;;;;21.11;44.63;99049.59;4878340;29;4290;-82
2023/01/16 08:57:04;;;;;;;;;;;;;;;21.16;44.81;99045.34;4874934;29;4176;-74
2023/01/16 08:59:33;;;;;;;;;;;;;;;21.38;44.87;99052.84;4879539;29;4050;-77
2023/01/16 09:02:00;;;;;;;;;;;;;;;21.69;44.55;99040.34;4876083;29;4258;-73
2023/01/16 09:04:26;;;;;;;;;;;;;;;21.80;44.51;99037.56;4882488;29;4230;-72
2023/01/16 09:06:53;;;;;;;;;;;;;;;21.62;44.48;99030.16;4884951;29;4342;-81
2023/01/16 09:09:20;;;;;;;;;;;;;;;21.53;45.43;99017.06;4885555;29;5236;-72
2023/01/16 09:14:37;;;;;;;;;;;;;;;21.50;44.76;99012.72;4875851;29;4222;-77
2023/01/16 09:17:05;;;;;;;;;;;;;;;21.46;44.67;99007.66;4873198;29;4198;-78
2023/01/16 09:19:32;;;;;;;;;;;;;;;21.44;44.29;98998.25;4879420;29;4372;-71
2023/01/16 09:21:58;;;;;;;;;;;;;;;21.53;44.40;99002.66;4869306;29;5330;-78
2023/01/16 09:24:25;;;;;;;;;;;;;;;21.47;44.24;98999.75;4864988;29;4064;-78
2023/01/16 09:26:51;;;;;;;;;;;;;;;21.46;45.35;99004.03;4874251;29;5139;-77
2023/01/16 09:29:18;;;;;;;;;;;;;;;21.61;45.52;99004.94;4869252;29;4280;-78
2023/01/16 09:31:44;;;;;;;;;;;;;;;21.16;44.90;98995.72;4877000;29;4215;-72
2023/01/16 09:34:10;;;;;;;;;;;;;;;21.00;45.48;98987.56;4863856;29;4641;-67
2023/01/16 09:36:37;;;;;;;;;;;;;;;20.96;44.95;98991.13;4867982;29;4296;-69
2023/01/16 09:39:03;;;;;;;;;;;;;;;20.99;44.74;98991.88;4869007;29;5192;-72
2023/01/16 09:44:14;;;;;;;;;;;;;;;21.01;45.02;98983.28;4881109;29;4249;-71
2023/01/16 09:46:44;;;;;;;;;;;;;;;20.96;44.92;98981.75;4877386;29;4226;-70
2023/01/16 09:49:19;;;;;;;;;;;;;;;20.98;44.90;98976.03;4860246;29;4291;-70
2023/01/16 09:58:34;;;;;;;;;;;;;;;20.96;45.31;98970.25;4872911;29;4233;-75
2023/01/16 10:00:05;;;;;;;;;;;;;;;20.84;45.15;98954.28;4870150;29;4391;-69
2023/01/16 10:02:35;;;;;;;;;;;;;;;20.87;45.74;98952.88;4878711;29;4229;-70
2023/01/16 10:05:04;;;;;;;;;;;;;;;20.91;45.93;98947.19;4871022;29;4423;-67
2023/01/16 10:07:45;;;;;;;;;;;;;;;20.96;45.30;98947.22;4875314;29;5250;-71
2023/01/16 10:10:29;;;;;;;;;;;;;;;20.99;46.30;98934.34;4868756;29;4451;-72
2023/01/16 10:13:12;;;;;;;;;;;;;;;21.07;45.82;98925.81;4875528;29;4163;-71
2023/01/16 10:15:39;;;;;;;;;;;;;;;21.07;45.89;98920.03;4874531;29;4192;-70
2023/01/16 10:18:17;;;;;;;;;;;;;;;21.10;46.04;98913.63;4870715;29;4217;-71
2023/01/16 10:20:58;;;;;;;;;;;;;;;20.98;45.80;98912.75;4872399;29;4542;-71
2023/01/16 10:23:43;;;;;;;;;;;;;;;20.92;46.03;98904.75;4875340;29;4724;-71
2023/01/16 10:26:22;;;;;;;;;;;;;;;20.93;45.86;98892.53;4872930;29;4170;-71
2023/01/16 10:28:57;;;;;;;;;;;;;;;20.98;45.69;98881.09;4873255;29;5156;-69
2023/01/16 10:31:28;;;;;;;;;;;;;;;20.98;45.79;98875.34;4873739;29;5553;-69
2023/01/16 10:33:57;;;;;;;;;;;;;;;20.96;45.73;98873.19;4870649;29;4211;-69
2023/01/16 10:36:25;;;;;;;;;;;;;;;20.91;45.73;98872.41;4875107;29;4171;-71
2023/01/16 10:38:55;;;;;;;;;;;;;;;21.27;45.70;98874.25;4907892;29;4516;-72
2023/01/16 10:49:56;;;;;;;;;;;;;;;21.48;45.06;98843.53;4894584;29;3999;-76
2023/01/16 10:52:24;;;;;;;;;;;;;;;21.52;45.34;98848.63;4890206;29;4470;-74
2023/01/16 10:54:52;;;;;;;;;;;;;;;21.52;45.30;98837.09;4895506;29;3971;-76
2023/01/16 10:57:18;;;;;;;;;;;;;;;21.50;45.55;98831.31;4900157;29;4167;-74
2023/01/16 10:59:44;;;;;;;;;;;;;;;21.60;45.23;98819.16;4893747;29;4871;-75
2023/01/16 11:02:15;;;;;;;;;;;;;;;21.51;45.26;98812.63;4894679;29;4170;-75
2023/01/16 11:04:41;;;;;;;;;;;;;;;21.50;45.35;98811.16;4891822;29;4621;-73
2023/01/16 11:07:15;;;;;;;;;;;;;;;21.57;45.40;98809.06;4890429;29;4112;-76
2023/01/16 11:09:42;;;;;;;;;;;;;;;21.59;45.08;98795.41;4887369;29;4061;-68
2023/01/16 11:20:44;;;;;;;;;;;;;;;21.26;45.43;98783.56;4896122;29;4169;-71
2023/01/16 11:23:11;;;;;;;;;;;;;;;21.26;45.48;98774.94;4918122;29;4169;-72
2023/01/16 11:25:37;;;;;;;;;;;;;;;21.27;45.90;98769.91;4902256;29;4377;-72
2023/01/16 11:28:05;;;;;;;;;;;;;;;21.19;46.25;98773.44;4903172;29;4124;-69
2023/01/16 11:30:32;;;;;;;;;;;;;;;21.33;45.96;98747.66;4897437;29;4837;-72
2023/01/16 11:32:58;;;;;;;;;;;;;;;21.46;45.22;98742.75;4896086;29;4104;-72
2023/01/16 11:35:32;;;;;;;;;;;;;;;21.50;45.05;98736.31;4900198;29;4094;-73
2023/01/16 11:37:58;;;;;;;;;;;;;;;21.58;45.04;98735.63;4894741;29;4237;-73
2023/01/16 11:40:25;;;;;;;;;;;;;;;21.59;44.82;98729.16;4904501;29;4153;-73
2023/01/16 11:46:02;;;;;;;;;;;;;;;21.41;45.93;98711.75;4895615;29;4371;-73
2023/01/16 11:48:42;;;;;;;;;;;;;;;21.40;45.73;98711.03;4914404;29;4071;-74
2023/01/16 11:51:13;;;;;;;;;;;;;;;21.47;45.50;98714.69;4899401;29;5224;-68
2023/01/16 11:53:39;;;;;;;;;;;;;;;21.46;45.45;98701.72;4897423;29;4208;-68
2023/01/16 11:56:11;;;;;;;;;;;;;;;21.41;45.67;98695.19;4898717;29;4152;-69
2023/01/16 11:58:42;;;;;;;;;;;;;;;21.38;45.33;98687.97;4900596;29;4892;-69
2023/01/16 12:01:17;;;;;;;;;;;;;;;21.39;45.79;98680.03;4898010;29;4207;-69
2023/01/16 12:03:55;;;;;;;;;;;;;;;21.45;45.90;98677.25;4889584;29;5366;-71
2023/01/16 12:06:33;;;;;;;;;;;;;;;21.42;46.24;98667.88;4909311;29;4214;-71
2023/01/16 12:09:04;;;;;;;;;;;;;;;21.44;45.97;98665.00;4897963;29;4150;-70
2023/01/16 12:11:38;;;;;;;;;;;;;;;21.54;45.49;98656.44;4902054;29;5255;-71
2023/01/16 12:14:21;;;;;;;;;;;;;;;21.56;45.46;98641.34;4899517;29;4205;-70
2023/01/16 12:17:06;;;;;;;;;;;;;;;21.45;45.61;98634.06;4899853;29;5656;-71
2023/01/16 12:19:46;;;;;;;;;;;;;;;21.50;45.88;98626.88;4900477;29;4178;-72
2023/01/16 12:22:48;;;;;;;;;;;;;;;21.51;45.75;98619.72;4914193;29;4293;-72
2023/01/16 12:25:40;;;;;;;;;;;;;;;21.52;45.77;98612.50;4895679;29;4157;-72
2023/01/16 12:28:06;;;;;;;;;;;;;;;21.54;46.10;98621.88;4869643;29;4163;-77
2023/01/16 12:30:36;;;;;;;;;;;;;;;21.53;45.88;98613.94;4898877;29;4486;-76
2023/01/16 12:33:13;;;;;;;;;;;;;;;21.48;46.29;98600.97;4898675;29;6279;-77
2023/01/16 12:35:39;;;;;;;;;;;;;;;21.33;46.10;98597.97;4911502;29;4136;-73
2023/01/16 12:38:12;;;;;;;;;;;;;;;20.80;45.60;98586.09;4896212;29;4231;-68
2023/01/16 12:40:45;;;;;;;;;;;;;;;21.10;44.98;98576.25;4899860;29;4301;-72
2023/01/16 12:43:20;;;;;;;;;;;;;;;21.31;45.80;98560.53;4899851;29;4199;-77
2023/01/16 12:45:57;;;;;;;;;;;;;;;21.28;45.63;98556.22;4890993;29;4681;-72
2023/01/16 12:48:27;;;;;;;;;;;;;;;20.97;45.56;98545.94;4902074;29;4052;-68
2023/01/16 12:51:02;;;;;;;;;;;;;;;21.17;44.56;98534.56;4904145;29;4524;-72
2023/01/16 12:53:58;;;;;;;;;;;;;;;21.24;44.02;98536.03;4906490;29;5264;-72
2023/01/16 12:56:30;;;;;;;;;;;;;;;21.30;44.91;98533.19;4872256;29;4151;-72
2023/01/16 12:58:58;;;;;;;;;;;;;;;21.32;45.44;98520.97;4903307;29;4212;-76
2023/01/16 13:01:26;;;;;;;;;;;;;;;21.65;44.90;98526.91;4900486;29;4381;-72
2023/01/16 13:03:55;;;;;;;;;;;;;;;21.67;45.08;98516.13;4903898;29;5594;-77
2023/01/16 13:06:32;;;;;;;;;;;;;;;21.69;45.59;98510.38;4900547;29;5259;-76
2023/01/16 13:09:00;;;;;;;;;;;;;;;21.70;45.66;98503.16;4890453;29;4038;-75
2023/01/16 13:14:31;;;;;;;;;;;;;;;21.81;45.95;98497.44;4898674;29;3987;-73
2023/01/16 13:16:59;;;;;;;;;;;;;;;21.79;45.94;98494.56;4902383;29;5318;-73
2023/01/16 13:19:26;;;;;;;;;;;;;;;21.94;45.95;98475.84;4900663;29;4211;-75
2023/01/16 13:21:55;;;;;;;;;;;;;;;22.11;45.63;98474.44;4899858;29;4308;-74
2023/01/16 13:24:32;;;;;;;;;;;;;;;22.02;45.67;98463.63;4917210;29;4045;-80
2023/01/16 13:27:01;;;;;;;;;;;;;;;21.95;46.24;98465.78;4898962;29;4295;-81
2023/01/16 13:29:29;;;;;;;;;;;;;;;22.00;46.25;98460.75;4901338;29;4179;-70
2023/01/16 13:31:57;;;;;;;;;;;;;;;22.04;46.11;98455.72;4897728;29;4227;-71
2023/01/16 13:34:44;;;;;;;;;;;;;;;21.91;46.10;98448.47;4901672;29;4145;-83
2023/01/16 13:37:22;;;;;;;;;;;;;;;21.90;46.75;98447.06;4890638;29;4704;-83
2023/01/16 13:40:07;;;;;;;;;;;;;;;21.92;46.91;98441.28;4900994;29;4103;-71
2023/01/16 13:42:34;;;;;;;;;;;;;;;21.96;46.57;98435.53;4901846;29;4232;-76
2023/01/16 13:47:47;;;;;;;;;;;;;;;22.02;47.04;98414.66;4892172;29;5227;-73
2023/01/16 13:50:13;;;;;;;;;;;;;;;22.14;46.47;98411.75;4892001;29;4503;-71
2023/01/16 13:52:41;;;;;;;;;;;;;;;21.96;46.36;98407.44;4893755;29;4150;-75
2023/01/16 13:55:14;;;;;;;;;;;;;;;21.64;46.69;98405.22;4895969;29;4160;-73
2023/01/16 13:57:41;;;;;;;;;;;;;;;21.76;47.06;98401.63;4902551;29;4136;-74
2023/01/16 14:00:15;;;;;;;;;;;;;;;21.81;46.76;98400.22;4897598;29;4057;-79
2023/01/16 14:02:45;;;;;;;;;;;;;;;21.95;46.90;98388.00;4894961;29;4766;-72
2023/01/16 14:05:16;;;;;;;;;;;;;;;22.03;46.80;98396.63;4896731;29;4027;-72
2023/01/16 14:10:46;;;;;;;;;;;;;;;21.97;47.46;98382.25;4897060;29;4329;-70